sensor_id;sensor_type;location;lat;lon;timestamp;P1;durP1;ratioP1;P2;durP2;ratioP2
58260;SDS011;44058;52.898;6.502;2022-08-03T00:01:41;5.68;;;1.95;;
58260;SDS011;44058;52.898;6.502;2022-08-03T00:04:07;6.20;;;1.98;;
58260;SDS011;44058;52.898;6.502;2022-08-03T00:06:34;5.78;;;2.10;;
58260;SDS011;44058;52.898;6.502;2022-08-03T00:09:00;4.05;;;1.80;;
58260;SDS011;44058;52.898;6.502;2022-08-03T00:11:26;5.10;;;2.00;;
58260;SDS011;44058;52.898;6.502;2022-08-03T00:13:51;5.05;;;1.83;;
58260;SDS011;44058;52.898;6.502;2022-08-03T00:16:17;6.70;;;2.10;;
58260;SDS011;44058;52.898;6.502;2022-08-03T00:18:43;5.63;;;2.03;;
58260;SDS011;44058;52.898;6.502;2022-08-03T00:21:09;5.82;;;1.95;;
58260;SDS011;44058;52.898;6.502;2022-08-03T00:23:35;5.15;;;1.75;;
58260;SDS011;44058;52.898;6.502;2022-08-03T00:26:01;5.88;;;1.77;;
58260;SDS011;44058;52.898;6.502;2022-08-03T00:28:27;5.85;;;1.90;;
58260;SDS011;44058;52.898;6.502;2022-08-03T00:30:53;5.28;;;1.90;;
58260;SDS011;44058;52.898;6.502;2022-08-03T00:33:20;7.45;;;1.90;;
58260;SDS011;44058;52.898;6.502;2022-08-03T00:35:46;4.60;;;1.70;;
58260;SDS011;44058;52.898;6.502;2022-08-03T00:38:12;6.28;;;1.80;;
58260;SDS011;44058;52.898;6.502;2022-08-03T00:40:38;6.88;;;1.98;;
58260;SDS011;44058;52.898;6.502;2022-08-03T00:43:04;3.30;;;1.40;;
58260;SDS011;44058;52.898;6.502;2022-08-03T00:45:31;5.38;;;1.88;;
58260;SDS011;44058;52.898;6.502;2022-08-03T00:47:59;5.95;;;1.45;;
58260;SDS011;44058;52.898;6.502;2022-08-03T00:50:26;6.78;;;1.80;;
58260;SDS011;44058;52.898;6.502;2022-08-03T00:52:57;7.43;;;1.92;;
58260;SDS011;44058;52.898;6.502;2022-08-03T00:55:24;6.07;;;1.80;;
58260;SDS011;44058;52.898;6.502;2022-08-03T00:57:50;6.25;;;2.17;;
58260;SDS011;44058;52.898;6.502;2022-08-03T01:00:18;6.68;;;1.60;;
58260;SDS011;44058;52.898;6.502;2022-08-03T01:02:45;5.75;;;1.67;;
58260;SDS011;44058;52.898;6.502;2022-08-03T01:05:11;5.80;;;1.73;;
58260;SDS011;44058;52.898;6.502;2022-08-03T01:10:31;6.10;;;1.80;;
58260;SDS011;44058;52.898;6.502;2022-08-03T01:18:28;4.88;;;1.50;;
58260;SDS011;44058;52.898;6.502;2022-08-03T01:21:09;8.75;;;2.17;;
58260;SDS011;44058;52.898;6.502;2022-08-03T01:23:44;4.78;;;1.80;;
58260;SDS011;44058;52.898;6.502;2022-08-03T01:31:58;4.15;;;1.77;;
58260;SDS011;44058;52.898;6.502;2022-08-03T01:34:29;7.78;;;1.80;;
58260;SDS011;44058;52.898;6.502;2022-08-03T01:36:58;8.68;;;2.47;;
58260;SDS011;44058;52.898;6.502;2022-08-03T01:39:27;5.90;;;2.10;;
58260;SDS011;44058;52.898;6.502;2022-08-03T01:41:55;5.70;;;2.60;;
58260;SDS011;44058;52.898;6.502;2022-08-03T01:44:28;5.38;;;2.13;;
58260;SDS011;44058;52.898;6.502;2022-08-03T01:46:57;4.60;;;2.00;;
58260;SDS011;44058;52.898;6.502;2022-08-03T01:49:26;7.00;;;2.30;;
58260;SDS011;44058;52.898;6.502;2022-08-03T01:51:54;6.15;;;2.20;;
58260;SDS011;44058;52.898;6.502;2022-08-03T01:54:21;6.18;;;2.53;;
58260;SDS011;44058;52.898;6.502;2022-08-03T01:56:50;6.57;;;2.05;;
58260;SDS011;44058;52.898;6.502;2022-08-03T01:59:17;8.80;;;2.58;;
58260;SDS011;44058;52.898;6.502;2022-08-03T02:01:45;8.50;;;2.60;;
58260;SDS011;44058;52.898;6.502;2022-08-03T02:04:13;5.20;;;1.90;;
58260;SDS011;44058;52.898;6.502;2022-08-03T02:06:42;6.00;;;2.20;;
58260;SDS011;44058;52.898;6.502;2022-08-03T02:09:10;7.20;;;2.53;;
58260;SDS011;44058;52.898;6.502;2022-08-03T02:11:37;7.95;;;2.58;;
58260;SDS011;44058;52.898;6.502;2022-08-03T02:14:04;8.60;;;2.30;;
58260;SDS011;44058;52.898;6.502;2022-08-03T02:16:32;5.57;;;2.53;;
58260;SDS011;44058;52.898;6.502;2022-08-03T02:18:59;6.85;;;2.65;;
58260;SDS011;44058;52.898;6.502;2022-08-03T02:21:28;5.47;;;2.42;;
58260;SDS011;44058;52.898;6.502;2022-08-03T02:23:56;8.88;;;2.72;;
58260;SDS011;44058;52.898;6.502;2022-08-03T02:26:22;7.78;;;2.55;;
58260;SDS011;44058;52.898;6.502;2022-08-03T02:28:52;7.28;;;2.75;;
58260;SDS011;44058;52.898;6.502;2022-08-03T02:31:22;12.10;;;2.60;;
58260;SDS011;44058;52.898;6.502;2022-08-03T02:33:53;5.80;;;2.83;;
58260;SDS011;44058;52.898;6.502;2022-08-03T02:36:24;7.20;;;2.70;;
58260;SDS011;44058;52.898;6.502;2022-08-03T02:38:53;9.65;;;2.70;;
58260;SDS011;44058;52.898;6.502;2022-08-03T02:41:23;8.15;;;2.70;;
58260;SDS011;44058;52.898;6.502;2022-08-03T02:43:54;7.68;;;2.65;;
58260;SDS011;44058;52.898;6.502;2022-08-03T02:46:22;8.85;;;2.90;;
58260;SDS011;44058;52.898;6.502;2022-08-03T02:48:52;7.65;;;2.70;;
58260;SDS011;44058;52.898;6.502;2022-08-03T02:51:20;9.18;;;2.70;;
58260;SDS011;44058;52.898;6.502;2022-08-03T02:53:47;8.43;;;2.85;;
58260;SDS011;44058;52.898;6.502;2022-08-03T02:56:14;9.10;;;2.60;;
58260;SDS011;44058;52.898;6.502;2022-08-03T02:58:42;6.65;;;2.72;;
58260;SDS011;44058;52.898;6.502;2022-08-03T03:01:11;3.95;;;2.30;;
58260;SDS011;44058;52.898;6.502;2022-08-03T03:03:39;5.38;;;2.53;;
58260;SDS011;44058;52.898;6.502;2022-08-03T03:06:05;7.28;;;3.38;;
58260;SDS011;44058;52.898;6.502;2022-08-03T03:08:32;6.57;;;2.83;;
58260;SDS011;44058;52.898;6.502;2022-08-03T03:10:58;6.82;;;3.20;;
58260;SDS011;44058;52.898;6.502;2022-08-03T03:13:26;5.20;;;2.50;;
58260;SDS011;44058;52.898;6.502;2022-08-03T03:15:53;5.95;;;2.75;;
58260;SDS011;44058;52.898;6.502;2022-08-03T03:18:21;8.32;;;2.85;;
58260;SDS011;44058;52.898;6.502;2022-08-03T03:20:50;7.53;;;2.97;;
58260;SDS011;44058;52.898;6.502;2022-08-03T03:23:18;5.72;;;2.70;;
58260;SDS011;44058;52.898;6.502;2022-08-03T03:25:49;4.88;;;2.30;;
58260;SDS011;44058;52.898;6.502;2022-08-03T03:28:16;6.72;;;2.72;;
58260;SDS011;44058;52.898;6.502;2022-08-03T03:30:42;6.85;;;2.60;;
58260;SDS011;44058;52.898;6.502;2022-08-03T03:33:08;8.82;;;2.88;;
58260;SDS011;44058;52.898;6.502;2022-08-03T03:35:34;14.25;;;3.28;;
58260;SDS011;44058;52.898;6.502;2022-08-03T03:38:00;7.18;;;2.85;;
58260;SDS011;44058;52.898;6.502;2022-08-03T03:40:26;4.63;;;2.40;;
58260;SDS011;44058;52.898;6.502;2022-08-03T03:42:52;4.35;;;2.78;;
58260;SDS011;44058;52.898;6.502;2022-08-03T03:45:18;7.30;;;2.80;;
58260;SDS011;44058;52.898;6.502;2022-08-03T03:47:44;7.22;;;2.50;;
58260;SDS011;44058;52.898;6.502;2022-08-03T03:50:10;7.35;;;2.78;;
58260;SDS011;44058;52.898;6.502;2022-08-03T03:52:36;5.75;;;2.75;;
58260;SDS011;44058;52.898;6.502;2022-08-03T03:55:02;7.68;;;2.78;;
58260;SDS011;44058;52.898;6.502;2022-08-03T03:57:28;5.93;;;2.80;;
58260;SDS011;44058;52.898;6.502;2022-08-03T03:59:54;6.90;;;3.00;;
58260;SDS011;44058;52.898;6.502;2022-08-03T04:02:20;8.60;;;3.03;;
58260;SDS011;44058;52.898;6.502;2022-08-03T04:05:06;7.53;;;3.15;;
58260;SDS011;44058;52.898;6.502;2022-08-03T04:10:38;5.10;;;2.40;;
58260;SDS011;44058;52.898;6.502;2022-08-03T04:13:22;8.02;;;3.10;;
58260;SDS011;44058;52.898;6.502;2022-08-03T04:15:53;6.35;;;2.85;;
58260;SDS011;44058;52.898;6.502;2022-08-03T04:18:21;11.55;;;4.10;;
58260;SDS011;44058;52.898;6.502;2022-08-03T04:20:48;4.80;;;2.65;;
58260;SDS011;44058;52.898;6.502;2022-08-03T04:23:16;6.32;;;2.60;;
58260;SDS011;44058;52.898;6.502;2022-08-03T04:25:46;7.82;;;3.10;;
58260;SDS011;44058;52.898;6.502;2022-08-03T04:28:14;5.78;;;2.58;;
58260;SDS011;44058;52.898;6.502;2022-08-03T04:30:40;7.18;;;3.17;;
58260;SDS011;44058;52.898;6.502;2022-08-03T04:33:12;6.97;;;2.55;;
58260;SDS011;44058;52.898;6.502;2022-08-03T04:35:40;5.80;;;2.80;;
58260;SDS011;44058;52.898;6.502;2022-08-03T04:40:37;5.38;;;2.97;;
58260;SDS011;44058;52.898;6.502;2022-08-03T04:43:06;5.03;;;2.80;;
58260;SDS011;44058;52.898;6.502;2022-08-03T04:45:34;6.95;;;3.05;;
58260;SDS011;44058;52.898;6.502;2022-08-03T04:48:00;8.30;;;2.50;;
58260;SDS011;44058;52.898;6.502;2022-08-03T04:50:27;7.15;;;3.05;;
58260;SDS011;44058;52.898;6.502;2022-08-03T04:52:53;8.35;;;2.95;;
58260;SDS011;44058;52.898;6.502;2022-08-03T04:55:26;7.68;;;3.00;;
58260;SDS011;44058;52.898;6.502;2022-08-03T04:57:56;9.98;;;3.15;;
58260;SDS011;44058;52.898;6.502;2022-08-03T05:00:23;5.63;;;3.08;;
58260;SDS011;44058;52.898;6.502;2022-08-03T05:02:50;6.53;;;3.35;;
58260;SDS011;44058;52.898;6.502;2022-08-03T05:05:16;5.53;;;2.80;;
58260;SDS011;44058;52.898;6.502;2022-08-03T05:07:42;9.77;;;3.20;;
58260;SDS011;44058;52.898;6.502;2022-08-03T05:10:09;10.50;;;3.17;;
58260;SDS011;44058;52.898;6.502;2022-08-03T05:12:36;10.05;;;3.20;;
58260;SDS011;44058;52.898;6.502;2022-08-03T05:15:02;6.88;;;3.42;;
58260;SDS011;44058;52.898;6.502;2022-08-03T05:17:28;9.82;;;3.83;;
58260;SDS011;44058;52.898;6.502;2022-08-03T05:19:54;6.78;;;3.15;;
58260;SDS011;44058;52.898;6.502;2022-08-03T05:22:21;8.60;;;3.08;;
58260;SDS011;44058;52.898;6.502;2022-08-03T05:24:47;5.85;;;3.20;;
58260;SDS011;44058;52.898;6.502;2022-08-03T05:27:12;5.45;;;2.88;;
58260;SDS011;44058;52.898;6.502;2022-08-03T05:29:46;9.88;;;3.00;;
58260;SDS011;44058;52.898;6.502;2022-08-03T05:32:13;8.23;;;4.10;;
58260;SDS011;44058;52.898;6.502;2022-08-03T05:34:43;8.07;;;3.40;;
58260;SDS011;44058;52.898;6.502;2022-08-03T05:37:09;6.53;;;3.33;;
58260;SDS011;44058;52.898;6.502;2022-08-03T05:39:35;7.72;;;3.35;;
58260;SDS011;44058;52.898;6.502;2022-08-03T05:42:00;10.95;;;3.72;;
58260;SDS011;44058;52.898;6.502;2022-08-03T05:44:26;8.95;;;3.85;;
58260;SDS011;44058;52.898;6.502;2022-08-03T05:46:52;10.52;;;3.92;;
58260;SDS011;44058;52.898;6.502;2022-08-03T05:49:18;9.98;;;3.95;;
58260;SDS011;44058;52.898;6.502;2022-08-03T05:51:44;8.90;;;3.70;;
58260;SDS011;44058;52.898;6.502;2022-08-03T05:54:10;9.43;;;3.90;;
58260;SDS011;44058;52.898;6.502;2022-08-03T05:56:36;12.73;;;3.72;;
58260;SDS011;44058;52.898;6.502;2022-08-03T05:59:02;8.85;;;3.72;;
58260;SDS011;44058;52.898;6.502;2022-08-03T06:01:28;9.88;;;3.72;;
58260;SDS011;44058;52.898;6.502;2022-08-03T06:03:57;9.50;;;4.13;;
58260;SDS011;44058;52.898;6.502;2022-08-03T06:06:23;9.82;;;3.80;;
58260;SDS011;44058;52.898;6.502;2022-08-03T06:08:49;11.98;;;4.18;;
58260;SDS011;44058;52.898;6.502;2022-08-03T06:11:14;16.10;;;3.72;;
58260;SDS011;44058;52.898;6.502;2022-08-03T06:13:40;10.10;;;4.22;;
58260;SDS011;44058;52.898;6.502;2022-08-03T06:16:07;9.18;;;3.58;;
58260;SDS011;44058;52.898;6.502;2022-08-03T06:18:33;11.32;;;3.80;;
58260;SDS011;44058;52.898;6.502;2022-08-03T06:20:59;8.05;;;3.90;;
58260;SDS011;44058;52.898;6.502;2022-08-03T06:23:25;10.07;;;4.45;;
58260;SDS011;44058;52.898;6.502;2022-08-03T06:25:50;12.63;;;3.78;;
58260;SDS011;44058;52.898;6.502;2022-08-03T06:28:16;9.57;;;4.00;;
58260;SDS011;44058;52.898;6.502;2022-08-03T06:30:42;11.45;;;4.25;;
58260;SDS011;44058;52.898;6.502;2022-08-03T06:33:09;11.85;;;4.40;;
58260;SDS011;44058;52.898;6.502;2022-08-03T06:35:35;7.05;;;3.60;;
58260;SDS011;44058;52.898;6.502;2022-08-03T06:38:00;10.02;;;3.78;;
58260;SDS011;44058;52.898;6.502;2022-08-03T06:40:26;15.15;;;4.22;;
58260;SDS011;44058;52.898;6.502;2022-08-03T06:42:54;10.90;;;3.80;;
58260;SDS011;44058;52.898;6.502;2022-08-03T06:45:20;9.82;;;3.80;;
58260;SDS011;44058;52.898;6.502;2022-08-03T06:47:46;9.52;;;3.25;;
58260;SDS011;44058;52.898;6.502;2022-08-03T06:50:11;11.48;;;4.10;;
58260;SDS011;44058;52.898;6.502;2022-08-03T06:52:37;11.20;;;3.70;;
58260;SDS011;44058;52.898;6.502;2022-08-03T06:55:03;12.38;;;4.15;;
58260;SDS011;44058;52.898;6.502;2022-08-03T06:57:30;7.78;;;4.05;;
58260;SDS011;44058;52.898;6.502;2022-08-03T06:59:55;9.73;;;3.80;;
58260;SDS011;44058;52.898;6.502;2022-08-03T07:02:27;8.95;;;3.42;;
58260;SDS011;44058;52.898;6.502;2022-08-03T07:04:53;10.75;;;3.53;;
58260;SDS011;44058;52.898;6.502;2022-08-03T07:07:19;12.77;;;4.15;;
58260;SDS011;44058;52.898;6.502;2022-08-03T07:09:45;11.68;;;4.13;;
58260;SDS011;44058;52.898;6.502;2022-08-03T07:12:12;8.55;;;4.00;;
58260;SDS011;44058;52.898;6.502;2022-08-03T07:14:37;12.27;;;4.20;;
58260;SDS011;44058;52.898;6.502;2022-08-03T07:17:03;14.77;;;4.00;;
58260;SDS011;44058;52.898;6.502;2022-08-03T07:19:29;10.30;;;3.85;;
58260;SDS011;44058;52.898;6.502;2022-08-03T07:21:54;8.95;;;4.20;;
58260;SDS011;44058;52.898;6.502;2022-08-03T07:24:20;12.10;;;4.40;;
58260;SDS011;44058;52.898;6.502;2022-08-03T07:26:46;7.45;;;3.80;;
58260;SDS011;44058;52.898;6.502;2022-08-03T07:29:12;11.75;;;4.22;;
58260;SDS011;44058;52.898;6.502;2022-08-03T07:31:38;9.80;;;3.63;;
58260;SDS011;44058;52.898;6.502;2022-08-03T07:34:04;16.17;;;3.90;;
58260;SDS011;44058;52.898;6.502;2022-08-03T07:36:29;12.25;;;4.38;;
58260;SDS011;44058;52.898;6.502;2022-08-03T07:38:56;9.68;;;4.00;;
58260;SDS011;44058;52.898;6.502;2022-08-03T07:41:22;10.07;;;3.75;;
58260;SDS011;44058;52.898;6.502;2022-08-03T07:43:48;11.88;;;3.88;;
58260;SDS011;44058;52.898;6.502;2022-08-03T07:46:14;10.82;;;4.30;;
58260;SDS011;44058;52.898;6.502;2022-08-03T07:48:40;15.23;;;4.22;;
58260;SDS011;44058;52.898;6.502;2022-08-03T07:51:06;11.48;;;4.30;;
58260;SDS011;44058;52.898;6.502;2022-08-03T07:53:31;10.23;;;3.90;;
58260;SDS011;44058;52.898;6.502;2022-08-03T07:55:57;12.07;;;4.18;;
58260;SDS011;44058;52.898;6.502;2022-08-03T07:58:23;12.25;;;4.47;;
58260;SDS011;44058;52.898;6.502;2022-08-03T08:00:49;11.77;;;3.50;;
58260;SDS011;44058;52.898;6.502;2022-08-03T08:03:17;12.02;;;3.97;;
58260;SDS011;44058;52.898;6.502;2022-08-03T08:05:43;10.02;;;3.88;;
58260;SDS011;44058;52.898;6.502;2022-08-03T08:08:09;7.95;;;4.22;;
58260;SDS011;44058;52.898;6.502;2022-08-03T08:10:35;12.27;;;4.13;;
58260;SDS011;44058;52.898;6.502;2022-08-03T08:13:01;9.73;;;3.65;;
58260;SDS011;44058;52.898;6.502;2022-08-03T08:15:28;13.23;;;3.72;;
58260;SDS011;44058;52.898;6.502;2022-08-03T08:17:56;11.60;;;4.28;;
58260;SDS011;44058;52.898;6.502;2022-08-03T08:20:28;13.57;;;3.67;;
58260;SDS011;44058;52.898;6.502;2022-08-03T08:22:58;13.30;;;4.47;;
58260;SDS011;44058;52.898;6.502;2022-08-03T08:25:25;12.90;;;4.15;;
58260;SDS011;44058;52.898;6.502;2022-08-03T08:27:52;11.57;;;4.40;;
58260;SDS011;44058;52.898;6.502;2022-08-03T08:30:19;12.45;;;4.20;;
58260;SDS011;44058;52.898;6.502;2022-08-03T08:32:46;16.05;;;4.10;;
58260;SDS011;44058;52.898;6.502;2022-08-03T08:35:12;14.23;;;3.13;;
58260;SDS011;44058;52.898;6.502;2022-08-03T08:37:39;10.35;;;3.58;;
58260;SDS011;44058;52.898;6.502;2022-08-03T08:40:05;12.50;;;3.95;;
58260;SDS011;44058;52.898;6.502;2022-08-03T08:42:32;10.05;;;3.85;;
58260;SDS011;44058;52.898;6.502;2022-08-03T08:45:01;11.10;;;3.60;;
58260;SDS011;44058;52.898;6.502;2022-08-03T08:47:29;12.07;;;4.60;;
58260;SDS011;44058;52.898;6.502;2022-08-03T08:49:57;8.68;;;3.53;;
58260;SDS011;44058;52.898;6.502;2022-08-03T08:52:24;13.23;;;4.07;;
58260;SDS011;44058;52.898;6.502;2022-08-03T08:54:54;10.85;;;4.13;;
58260;SDS011;44058;52.898;6.502;2022-08-03T08:57:28;11.57;;;3.75;;
58260;SDS011;44058;52.898;6.502;2022-08-03T08:59:56;11.63;;;3.70;;
58260;SDS011;44058;52.898;6.502;2022-08-03T09:02:22;11.48;;;4.00;;
58260;SDS011;44058;52.898;6.502;2022-08-03T09:04:49;15.40;;;4.40;;
58260;SDS011;44058;52.898;6.502;2022-08-03T09:07:16;7.53;;;3.47;;
58260;SDS011;44058;52.898;6.502;2022-08-03T09:09:42;12.05;;;4.05;;
58260;SDS011;44058;52.898;6.502;2022-08-03T09:12:08;9.05;;;3.28;;
58260;SDS011;44058;52.898;6.502;2022-08-03T09:14:34;14.77;;;4.25;;
58260;SDS011;44058;52.898;6.502;2022-08-03T09:17:00;9.50;;;3.88;;
58260;SDS011;44058;52.898;6.502;2022-08-03T09:19:31;13.45;;;3.70;;
58260;SDS011;44058;52.898;6.502;2022-08-03T09:22:11;9.32;;;3.17;;
58260;SDS011;44058;52.898;6.502;2022-08-03T09:27:43;13.40;;;3.80;;
58260;SDS011;44058;52.898;6.502;2022-08-03T09:30:14;10.13;;;3.22;;
58260;SDS011;44058;52.898;6.502;2022-08-03T09:32:43;9.45;;;3.35;;
58260;SDS011;44058;52.898;6.502;2022-08-03T09:35:11;12.57;;;3.00;;
58260;SDS011;44058;52.898;6.502;2022-08-03T09:37:39;12.85;;;3.13;;
58260;SDS011;44058;52.898;6.502;2022-08-03T09:40:05;8.75;;;3.35;;
58260;SDS011;44058;52.898;6.502;2022-08-03T09:42:31;6.72;;;2.72;;
58260;SDS011;44058;52.898;6.502;2022-08-03T09:45:03;11.93;;;2.97;;
58260;SDS011;44058;52.898;6.502;2022-08-03T09:47:30;9.83;;;2.80;;
58260;SDS011;44058;52.898;6.502;2022-08-03T09:49:59;9.68;;;3.00;;
58260;SDS011;44058;52.898;6.502;2022-08-03T09:52:33;15.18;;;3.33;;
58260;SDS011;44058;52.898;6.502;2022-08-03T09:55:02;7.25;;;2.53;;
58260;SDS011;44058;52.898;6.502;2022-08-03T09:57:33;9.82;;;3.17;;
58260;SDS011;44058;52.898;6.502;2022-08-03T10:00:11;10.00;;;2.80;;
58260;SDS011;44058;52.898;6.502;2022-08-03T10:02:43;8.32;;;3.00;;
58260;SDS011;44058;52.898;6.502;2022-08-03T10:05:11;8.13;;;2.55;;
58260;SDS011;44058;52.898;6.502;2022-08-03T10:07:46;9.05;;;2.70;;
58260;SDS011;44058;52.898;6.502;2022-08-03T10:10:13;8.48;;;2.95;;
58260;SDS011;44058;52.898;6.502;2022-08-03T10:12:40;12.25;;;2.70;;
58260;SDS011;44058;52.898;6.502;2022-08-03T10:15:07;9.52;;;2.92;;
58260;SDS011;44058;52.898;6.502;2022-08-03T10:17:34;11.50;;;3.83;;
58260;SDS011;44058;52.898;6.502;2022-08-03T10:20:00;11.52;;;3.42;;
58260;SDS011;44058;52.898;6.502;2022-08-03T10:22:36;10.43;;;3.10;;
58260;SDS011;44058;52.898;6.502;2022-08-03T10:25:06;13.70;;;3.30;;
58260;SDS011;44058;52.898;6.502;2022-08-03T10:27:36;8.45;;;3.08;;
58260;SDS011;44058;52.898;6.502;2022-08-03T10:30:06;11.27;;;2.80;;
58260;SDS011;44058;52.898;6.502;2022-08-03T10:32:39;8.85;;;2.63;;
58260;SDS011;44058;52.898;6.502;2022-08-03T10:35:10;9.30;;;3.67;;
58260;SDS011;44058;52.898;6.502;2022-08-03T10:37:42;9.00;;;3.08;;
58260;SDS011;44058;52.898;6.502;2022-08-03T10:40:09;8.75;;;2.70;;
58260;SDS011;44058;52.898;6.502;2022-08-03T10:42:38;11.77;;;2.97;;
58260;SDS011;44058;52.898;6.502;2022-08-03T10:45:08;8.07;;;2.97;;
58260;SDS011;44058;52.898;6.502;2022-08-03T10:47:42;13.50;;;4.10;;
58260;SDS011;44058;52.898;6.502;2022-08-03T10:50:09;12.52;;;4.07;;
58260;SDS011;44058;52.898;6.502;2022-08-03T10:52:52;10.40;;;3.08;;
58260;SDS011;44058;52.898;6.502;2022-08-03T10:55:28;15.77;;;3.38;;
58260;SDS011;44058;52.898;6.502;2022-08-03T11:01:00;10.43;;;3.67;;
58260;SDS011;44058;52.898;6.502;2022-08-03T11:03:26;11.27;;;3.20;;
58260;SDS011;44058;52.898;6.502;2022-08-03T11:05:52;10.50;;;3.53;;
58260;SDS011;44058;52.898;6.502;2022-08-03T11:08:40;11.30;;;3.35;;
58260;SDS011;44058;52.898;6.502;2022-08-03T11:16:28;13.38;;;3.15;;
58260;SDS011;44058;52.898;6.502;2022-08-03T11:18:57;10.98;;;3.22;;
58260;SDS011;44058;52.898;6.502;2022-08-03T11:29:52;13.35;;;3.33;;
58260;SDS011;44058;52.898;6.502;2022-08-03T11:40:35;11.65;;;3.00;;
58260;SDS011;44058;52.898;6.502;2022-08-03T11:43:01;15.05;;;3.55;;
58260;SDS011;44058;52.898;6.502;2022-08-03T11:45:28;13.07;;;3.08;;
58260;SDS011;44058;52.898;6.502;2022-08-03T11:47:55;10.52;;;2.78;;
58260;SDS011;44058;52.898;6.502;2022-08-03T11:50:22;12.80;;;2.97;;
58260;SDS011;44058;52.898;6.502;2022-08-03T11:52:49;13.50;;;2.90;;
58260;SDS011;44058;52.898;6.502;2022-08-03T11:55:18;13.55;;;3.22;;
58260;SDS011;44058;52.898;6.502;2022-08-03T11:57:45;11.05;;;3.45;;
58260;SDS011;44058;52.898;6.502;2022-08-03T12:00:25;11.38;;;3.83;;
58260;SDS011;44058;52.898;6.502;2022-08-03T12:03:12;13.52;;;3.78;;
58260;SDS011;44058;52.898;6.502;2022-08-03T12:08:37;9.45;;;3.10;;
58260;SDS011;44058;52.898;6.502;2022-08-03T12:11:03;13.38;;;3.75;;
58260;SDS011;44058;52.898;6.502;2022-08-03T12:13:37;9.55;;;2.80;;
58260;SDS011;44058;52.898;6.502;2022-08-03T12:16:05;14.23;;;3.97;;
58260;SDS011;44058;52.898;6.502;2022-08-03T12:18:31;15.35;;;3.83;;
58260;SDS011;44058;52.898;6.502;2022-08-03T12:21:07;10.40;;;2.97;;
58260;SDS011;44058;52.898;6.502;2022-08-03T12:26:02;9.98;;;3.10;;
58260;SDS011;44058;52.898;6.502;2022-08-03T12:28:29;11.85;;;3.30;;
58260;SDS011;44058;52.898;6.502;2022-08-03T12:30:55;10.88;;;2.78;;
58260;SDS011;44058;52.898;6.502;2022-08-03T12:33:26;8.45;;;2.42;;
58260;SDS011;44058;52.898;6.502;2022-08-03T12:36:05;9.02;;;2.78;;
58260;SDS011;44058;52.898;6.502;2022-08-03T12:38:35;10.13;;;2.70;;
58260;SDS011;44058;52.898;6.502;2022-08-03T12:41:06;8.48;;;2.08;;
58260;SDS011;44058;52.898;6.502;2022-08-03T12:43:35;7.45;;;2.30;;
58260;SDS011;44058;52.898;6.502;2022-08-03T12:48:56;9.60;;;2.35;;
58260;SDS011;44058;52.898;6.502;2022-08-03T12:51:23;10.65;;;2.25;;
58260;SDS011;44058;52.898;6.502;2022-08-03T12:56:17;11.15;;;2.63;;
58260;SDS011;44058;52.898;6.502;2022-08-03T12:58:45;10.30;;;2.75;;
58260;SDS011;44058;52.898;6.502;2022-08-03T13:01:12;7.82;;;2.08;;
58260;SDS011;44058;52.898;6.502;2022-08-03T13:06:12;10.52;;;2.28;;
58260;SDS011;44058;52.898;6.502;2022-08-03T13:08:40;10.50;;;2.20;;
58260;SDS011;44058;52.898;6.502;2022-08-03T13:11:20;7.90;;;1.92;;
58260;SDS011;44058;52.898;6.502;2022-08-03T13:13:51;6.43;;;2.40;;
58260;SDS011;44058;52.898;6.502;2022-08-03T13:16:18;10.88;;;2.53;;
58260;SDS011;44058;52.898;6.502;2022-08-03T13:18:46;9.70;;;2.25;;
58260;SDS011;44058;52.898;6.502;2022-08-03T13:21:15;9.80;;;2.65;;
58260;SDS011;44058;52.898;6.502;2022-08-03T13:23:42;8.07;;;2.20;;
58260;SDS011;44058;52.898;6.502;2022-08-03T13:26:08;8.30;;;2.30;;
58260;SDS011;44058;52.898;6.502;2022-08-03T13:28:35;6.63;;;2.03;;
58260;SDS011;44058;52.898;6.502;2022-08-03T13:31:00;6.07;;;2.08;;
58260;SDS011;44058;52.898;6.502;2022-08-03T13:33:27;6.35;;;1.90;;
58260;SDS011;44058;52.898;6.502;2022-08-03T13:35:53;7.05;;;2.25;;
58260;SDS011;44058;52.898;6.502;2022-08-03T13:38:19;7.72;;;2.05;;
58260;SDS011;44058;52.898;6.502;2022-08-03T13:40:45;8.15;;;2.22;;
58260;SDS011;44058;52.898;6.502;2022-08-03T13:43:11;8.10;;;2.33;;
58260;SDS011;44058;52.898;6.502;2022-08-03T13:45:37;6.63;;;1.85;;
58260;SDS011;44058;52.898;6.502;2022-08-03T13:48:03;9.25;;;2.78;;
58260;SDS011;44058;52.898;6.502;2022-08-03T13:50:29;11.60;;;2.60;;
58260;SDS011;44058;52.898;6.502;2022-08-03T13:52:55;9.63;;;1.98;;
58260;SDS011;44058;52.898;6.502;2022-08-03T13:55:22;10.38;;;2.85;;
58260;SDS011;44058;52.898;6.502;2022-08-03T13:57:48;8.38;;;2.47;;
58260;SDS011;44058;52.898;6.502;2022-08-03T14:00:14;8.57;;;2.38;;
58260;SDS011;44058;52.898;6.502;2022-08-03T14:02:41;10.18;;;2.53;;
58260;SDS011;44058;52.898;6.502;2022-08-03T14:05:06;7.82;;;2.20;;
58260;SDS011;44058;52.898;6.502;2022-08-03T14:07:32;5.75;;;1.98;;
58260;SDS011;44058;52.898;6.502;2022-08-03T14:09:59;8.45;;;2.15;;
58260;SDS011;44058;52.898;6.502;2022-08-03T14:12:26;10.45;;;2.30;;
58260;SDS011;44058;52.898;6.502;2022-08-03T14:14:52;7.00;;;2.28;;
58260;SDS011;44058;52.898;6.502;2022-08-03T14:17:18;10.27;;;2.30;;
58260;SDS011;44058;52.898;6.502;2022-08-03T14:19:44;6.32;;;2.30;;
58260;SDS011;44058;52.898;6.502;2022-08-03T14:22:09;11.07;;;2.78;;
58260;SDS011;44058;52.898;6.502;2022-08-03T14:24:35;10.95;;;2.58;;
58260;SDS011;44058;52.898;6.502;2022-08-03T14:27:01;7.30;;;2.42;;
58260;SDS011;44058;52.898;6.502;2022-08-03T14:29:26;10.23;;;2.92;;
58260;SDS011;44058;52.898;6.502;2022-08-03T14:31:52;8.30;;;3.10;;
58260;SDS011;44058;52.898;6.502;2022-08-03T14:34:18;14.63;;;3.03;;
58260;SDS011;44058;52.898;6.502;2022-08-03T14:36:43;9.88;;;2.97;;
58260;SDS011;44058;52.898;6.502;2022-08-03T14:39:11;13.48;;;2.95;;
58260;SDS011;44058;52.898;6.502;2022-08-03T14:41:37;11.20;;;2.75;;
58260;SDS011;44058;52.898;6.502;2022-08-03T14:44:03;12.90;;;3.15;;
58260;SDS011;44058;52.898;6.502;2022-08-03T14:46:29;8.25;;;2.95;;
58260;SDS011;44058;52.898;6.502;2022-08-03T14:48:56;9.40;;;2.72;;
58260;SDS011;44058;52.898;6.502;2022-08-03T14:51:22;9.50;;;2.75;;
58260;SDS011;44058;52.898;6.502;2022-08-03T14:53:48;14.20;;;3.17;;
58260;SDS011;44058;52.898;6.502;2022-08-03T14:56:14;6.57;;;3.13;;
58260;SDS011;44058;52.898;6.502;2022-08-03T14:58:40;9.20;;;2.78;;
58260;SDS011;44058;52.898;6.502;2022-08-03T15:01:06;8.52;;;2.90;;
58260;SDS011;44058;52.898;6.502;2022-08-03T15:03:32;7.80;;;2.83;;
58260;SDS011;44058;52.898;6.502;2022-08-03T15:08:25;8.10;;;3.05;;
58260;SDS011;44058;52.898;6.502;2022-08-03T15:10:54;7.72;;;3.05;;
58260;SDS011;44058;52.898;6.502;2022-08-03T15:13:20;9.77;;;3.58;;
58260;SDS011;44058;52.898;6.502;2022-08-03T15:15:47;9.57;;;2.65;;
58260;SDS011;44058;52.898;6.502;2022-08-03T15:18:13;9.68;;;3.40;;
58260;SDS011;44058;52.898;6.502;2022-08-03T15:20:42;8.52;;;3.30;;
58260;SDS011;44058;52.898;6.502;2022-08-03T15:23:08;7.10;;;3.15;;
58260;SDS011;44058;52.898;6.502;2022-08-03T15:25:34;5.55;;;2.70;;
58260;SDS011;44058;52.898;6.502;2022-08-03T15:27:59;8.50;;;3.00;;
58260;SDS011;44058;52.898;6.502;2022-08-03T15:30:25;9.35;;;2.80;;
58260;SDS011;44058;52.898;6.502;2022-08-03T15:32:51;8.10;;;2.85;;
58260;SDS011;44058;52.898;6.502;2022-08-03T15:35:17;7.00;;;3.08;;
58260;SDS011;44058;52.898;6.502;2022-08-03T15:37:42;6.68;;;3.00;;
58260;SDS011;44058;52.898;6.502;2022-08-03T15:40:08;8.30;;;3.10;;
58260;SDS011;44058;52.898;6.502;2022-08-03T15:42:34;7.50;;;3.05;;
58260;SDS011;44058;52.898;6.502;2022-08-03T15:45:00;8.70;;;3.40;;
58260;SDS011;44058;52.898;6.502;2022-08-03T15:47:26;9.43;;;3.60;;
58260;SDS011;44058;52.898;6.502;2022-08-03T15:49:52;7.10;;;2.97;;